sensor_id;sensor_type;location;lat;lon;timestamp;P1;durP1;ratioP1;P2;durP2;ratioP2
12202;SDS011;6164;42.178;24.622;2023-05-16T00:00:39;41.17;;;30.83;;
12202;SDS011;6164;42.178;24.622;2023-05-16T00:03:06;42.17;;;32.33;;
12202;SDS011;6164;42.178;24.622;2023-05-16T00:05:34;43.00;;;32.90;;
12202;SDS011;6164;42.178;24.622;2023-05-16T00:08:03;42.63;;;32.30;;
12202;SDS011;6164;42.178;24.622;2023-05-16T00:10:30;40.70;;;31.50;;
12202;SDS011;6164;42.178;24.622;2023-05-16T00:12:57;41.15;;;31.63;;
12202;SDS011;6164;42.178;24.622;2023-05-16T00:15:26;42.47;;;33.15;;
12202;SDS011;6164;42.178;24.622;2023-05-16T00:17:53;43.75;;;31.90;;
12202;SDS011;6164;42.178;24.622;2023-05-16T00:20:22;39.35;;;30.65;;
12202;SDS011;6164;42.178;24.622;2023-05-16T00:22:49;42.30;;;32.03;;
12202;SDS011;6164;42.178;24.622;2023-05-16T00:25:17;39.13;;;31.52;;
12202;SDS011;6164;42.178;24.622;2023-05-16T00:27:44;42.55;;;32.88;;
12202;SDS011;6164;42.178;24.622;2023-05-16T00:30:11;42.38;;;31.58;;
12202;SDS011;6164;42.178;24.622;2023-05-16T00:32:38;38.80;;;31.00;;
12202;SDS011;6164;42.178;24.622;2023-05-16T00:35:05;41.20;;;31.13;;
12202;SDS011;6164;42.178;24.622;2023-05-16T00:37:34;39.95;;;31.25;;
12202;SDS011;6164;42.178;24.622;2023-05-16T00:40:01;40.40;;;32.78;;
12202;SDS011;6164;42.178;24.622;2023-05-16T00:42:30;40.63;;;30.83;;
12202;SDS011;6164;42.178;24.622;2023-05-16T00:44:57;42.30;;;31.45;;
12202;SDS011;6164;42.178;24.622;2023-05-16T00:47:24;47.30;;;32.90;;
12202;SDS011;6164;42.178;24.622;2023-05-16T00:49:50;47.10;;;32.20;;
12202;SDS011;6164;42.178;24.622;2023-05-16T00:52:17;40.65;;;31.77;;
12202;SDS011;6164;42.178;24.622;2023-05-16T00:54:44;40.75;;;31.00;;
12202;SDS011;6164;42.178;24.622;2023-05-16T00:57:11;43.70;;;32.50;;
12202;SDS011;6164;42.178;24.622;2023-05-16T00:59:39;40.47;;;31.55;;
12202;SDS011;6164;42.178;24.622;2023-05-16T01:02:06;41.20;;;31.67;;
12202;SDS011;6164;42.178;24.622;2023-05-16T01:04:33;40.05;;;31.83;;
12202;SDS011;6164;42.178;24.622;2023-05-16T01:07:01;40.90;;;32.72;;
12202;SDS011;6164;42.178;24.622;2023-05-16T01:09:27;38.67;;;31.10;;
12202;SDS011;6164;42.178;24.622;2023-05-16T01:11:56;42.28;;;31.30;;
12202;SDS011;6164;42.178;24.622;2023-05-16T01:14:34;39.92;;;31.67;;
12202;SDS011;6164;42.178;24.622;2023-05-16T01:17:10;47.40;;;32.60;;
12202;SDS011;6164;42.178;24.622;2023-05-16T01:22:35;43.88;;;32.88;;
12202;SDS011;6164;42.178;24.622;2023-05-16T01:25:16;40.15;;;31.00;;
12202;SDS011;6164;42.178;24.622;2023-05-16T01:27:53;44.58;;;31.63;;
12202;SDS011;6164;42.178;24.622;2023-05-16T01:30:22;40.60;;;31.65;;
12202;SDS011;6164;42.178;24.622;2023-05-16T01:32:49;39.15;;;31.17;;
12202;SDS011;6164;42.178;24.622;2023-05-16T01:35:19;38.35;;;30.02;;
12202;SDS011;6164;42.178;24.622;2023-05-16T01:37:47;39.97;;;30.58;;
12202;SDS011;6164;42.178;24.622;2023-05-16T01:40:20;39.80;;;30.63;;
12202;SDS011;6164;42.178;24.622;2023-05-16T01:42:56;41.85;;;30.38;;
12202;SDS011;6164;42.178;24.622;2023-05-16T01:45:30;39.88;;;30.05;;
12202;SDS011;6164;42.178;24.622;2023-05-16T01:48:09;40.15;;;28.33;;
12202;SDS011;6164;42.178;24.622;2023-05-16T01:50:41;37.35;;;29.48;;
12202;SDS011;6164;42.178;24.622;2023-05-16T01:53:13;38.28;;;29.95;;
12202;SDS011;6164;42.178;24.622;2023-05-16T01:55:44;39.20;;;29.88;;
12202;SDS011;6164;42.178;24.622;2023-05-16T01:58:14;35.25;;;29.30;;
12202;SDS011;6164;42.178;24.622;2023-05-16T02:00:42;41.03;;;30.17;;
12202;SDS011;6164;42.178;24.622;2023-05-16T02:03:09;36.00;;;29.60;;
12202;SDS011;6164;42.178;24.622;2023-05-16T02:05:35;37.22;;;28.95;;
12202;SDS011;6164;42.178;24.622;2023-05-16T02:08:02;36.08;;;28.65;;
12202;SDS011;6164;42.178;24.622;2023-05-16T02:10:30;41.63;;;31.25;;
12202;SDS011;6164;42.178;24.622;2023-05-16T02:12:57;36.45;;;29.48;;
12202;SDS011;6164;42.178;24.622;2023-05-16T02:15:25;36.40;;;27.80;;
12202;SDS011;6164;42.178;24.622;2023-05-16T02:17:51;40.20;;;29.98;;
12202;SDS011;6164;42.178;24.622;2023-05-16T02:20:18;37.03;;;29.88;;
12202;SDS011;6164;42.178;24.622;2023-05-16T02:22:45;35.17;;;28.63;;
12202;SDS011;6164;42.178;24.622;2023-05-16T02:25:14;38.60;;;29.80;;
12202;SDS011;6164;42.178;24.622;2023-05-16T02:27:41;39.75;;;30.10;;
12202;SDS011;6164;42.178;24.622;2023-05-16T02:30:08;38.67;;;29.08;;
12202;SDS011;6164;42.178;24.622;2023-05-16T02:32:37;42.53;;;32.10;;
12202;SDS011;6164;42.178;24.622;2023-05-16T02:35:05;39.00;;;30.00;;
12202;SDS011;6164;42.178;24.622;2023-05-16T02:37:32;41.03;;;30.10;;
12202;SDS011;6164;42.178;24.622;2023-05-16T02:39:59;43.00;;;29.23;;
12202;SDS011;6164;42.178;24.622;2023-05-16T02:42:26;40.78;;;28.90;;
12202;SDS011;6164;42.178;24.622;2023-05-16T02:44:53;41.80;;;30.00;;
12202;SDS011;6164;42.178;24.622;2023-05-16T02:47:20;53.03;;;33.17;;
12202;SDS011;6164;42.178;24.622;2023-05-16T02:49:48;51.47;;;30.95;;
12202;SDS011;6164;42.178;24.622;2023-05-16T02:52:16;47.88;;;32.25;;
12202;SDS011;6164;42.178;24.622;2023-05-16T02:54:43;43.15;;;30.92;;
12202;SDS011;6164;42.178;24.622;2023-05-16T02:57:10;40.55;;;31.27;;
12202;SDS011;6164;42.178;24.622;2023-05-16T02:59:36;43.63;;;31.48;;
12202;SDS011;6164;42.178;24.622;2023-05-16T03:02:03;44.70;;;32.20;;
12202;SDS011;6164;42.178;24.622;2023-05-16T03:04:30;44.47;;;32.20;;
12202;SDS011;6164;42.178;24.622;2023-05-16T03:06:58;39.75;;;30.00;;
12202;SDS011;6164;42.178;24.622;2023-05-16T03:09:25;40.95;;;29.73;;
12202;SDS011;6164;42.178;24.622;2023-05-16T03:11:52;41.20;;;30.65;;
12202;SDS011;6164;42.178;24.622;2023-05-16T03:14:18;46.17;;;30.98;;
12202;SDS011;6164;42.178;24.622;2023-05-16T03:16:45;43.40;;;30.75;;
12202;SDS011;6164;42.178;24.622;2023-05-16T03:19:12;43.13;;;29.70;;
12202;SDS011;6164;42.178;24.622;2023-05-16T03:21:39;42.30;;;30.17;;
12202;SDS011;6164;42.178;24.622;2023-05-16T03:24:07;39.67;;;29.33;;
12202;SDS011;6164;42.178;24.622;2023-05-16T03:26:34;46.85;;;30.27;;
12202;SDS011;6164;42.178;24.622;2023-05-16T03:29:01;39.63;;;29.17;;
12202;SDS011;6164;42.178;24.622;2023-05-16T03:31:27;42.28;;;31.05;;
12202;SDS011;6164;42.178;24.622;2023-05-16T03:33:54;39.50;;;28.48;;
12202;SDS011;6164;42.178;24.622;2023-05-16T03:36:21;38.88;;;29.38;;
12202;SDS011;6164;42.178;24.622;2023-05-16T03:38:48;43.38;;;31.40;;
12202;SDS011;6164;42.178;24.622;2023-05-16T03:41:16;42.47;;;30.33;;
12202;SDS011;6164;42.178;24.622;2023-05-16T03:43:43;40.30;;;29.23;;
12202;SDS011;6164;42.178;24.622;2023-05-16T03:46:10;38.85;;;28.63;;
12202;SDS011;6164;42.178;24.622;2023-05-16T03:48:36;38.30;;;29.42;;
12202;SDS011;6164;42.178;24.622;2023-05-16T03:51:03;36.35;;;28.27;;
12202;SDS011;6164;42.178;24.622;2023-05-16T03:53:30;38.55;;;29.63;;
12202;SDS011;6164;42.178;24.622;2023-05-16T03:55:57;39.13;;;28.17;;
12202;SDS011;6164;42.178;24.622;2023-05-16T03:58:25;39.40;;;29.08;;
12202;SDS011;6164;42.178;24.622;2023-05-16T04:00:52;44.85;;;31.90;;
12202;SDS011;6164;42.178;24.622;2023-05-16T04:03:19;39.92;;;29.55;;
12202;SDS011;6164;42.178;24.622;2023-05-16T04:05:52;41.70;;;30.45;;
12202;SDS011;6164;42.178;24.622;2023-05-16T04:08:19;41.05;;;30.20;;
12202;SDS011;6164;42.178;24.622;2023-05-16T04:10:45;46.42;;;33.95;;
12202;SDS011;6164;42.178;24.622;2023-05-16T04:13:13;45.25;;;31.83;;
12202;SDS011;6164;42.178;24.622;2023-05-16T04:15:41;51.78;;;34.17;;
12202;SDS011;6164;42.178;24.622;2023-05-16T04:18:08;46.13;;;34.70;;
12202;SDS011;6164;42.178;24.622;2023-05-16T04:20:35;53.30;;;35.67;;
12202;SDS011;6164;42.178;24.622;2023-05-16T04:23:02;54.85;;;37.85;;
12202;SDS011;6164;42.178;24.622;2023-05-16T04:25:28;54.22;;;37.33;;
12202;SDS011;6164;42.178;24.622;2023-05-16T04:27:56;51.30;;;36.30;;
12202;SDS011;6164;42.178;24.622;2023-05-16T04:30:22;48.55;;;35.20;;
12202;SDS011;6164;42.178;24.622;2023-05-16T04:32:50;44.65;;;33.55;;
12202;SDS011;6164;42.178;24.622;2023-05-16T04:35:17;53.97;;;35.55;;
12202;SDS011;6164;42.178;24.622;2023-05-16T04:37:44;52.42;;;35.17;;
12202;SDS011;6164;42.178;24.622;2023-05-16T04:40:11;48.47;;;35.20;;
12202;SDS011;6164;42.178;24.622;2023-05-16T04:42:38;45.30;;;35.13;;
12202;SDS011;6164;42.178;24.622;2023-05-16T04:45:05;48.40;;;35.50;;
12202;SDS011;6164;42.178;24.622;2023-05-16T04:47:35;55.65;;;35.38;;
12202;SDS011;6164;42.178;24.622;2023-05-16T04:50:03;49.63;;;36.22;;
12202;SDS011;6164;42.178;24.622;2023-05-16T04:52:30;53.95;;;38.80;;
12202;SDS011;6164;42.178;24.622;2023-05-16T04:54:57;53.95;;;36.90;;
12202;SDS011;6164;42.178;24.622;2023-05-16T04:57:24;51.30;;;36.92;;
12202;SDS011;6164;42.178;24.622;2023-05-16T04:59:52;50.83;;;37.60;;
12202;SDS011;6164;42.178;24.622;2023-05-16T05:02:19;47.97;;;36.70;;
12202;SDS011;6164;42.178;24.622;2023-05-16T05:04:45;56.15;;;37.65;;
12202;SDS011;6164;42.178;24.622;2023-05-16T05:07:13;53.38;;;38.75;;
12202;SDS011;6164;42.178;24.622;2023-05-16T05:09:40;48.35;;;38.33;;
12202;SDS011;6164;42.178;24.622;2023-05-16T05:12:08;51.33;;;37.38;;
12202;SDS011;6164;42.178;24.622;2023-05-16T05:14:35;49.35;;;37.55;;
12202;SDS011;6164;42.178;24.622;2023-05-16T05:17:02;48.78;;;36.45;;
12202;SDS011;6164;42.178;24.622;2023-05-16T05:19:28;46.92;;;37.38;;
12202;SDS011;6164;42.178;24.622;2023-05-16T05:21:55;46.20;;;36.30;;
12202;SDS011;6164;42.178;24.622;2023-05-16T05:24:23;51.22;;;36.92;;
12202;SDS011;6164;42.178;24.622;2023-05-16T05:26:50;46.50;;;36.25;;
12202;SDS011;6164;42.178;24.622;2023-05-16T05:29:17;52.22;;;38.55;;
12202;SDS011;6164;42.178;24.622;2023-05-16T05:31:44;54.53;;;38.45;;
12202;SDS011;6164;42.178;24.622;2023-05-16T05:34:11;49.35;;;36.63;;
12202;SDS011;6164;42.178;24.622;2023-05-16T05:36:38;51.40;;;37.03;;
12202;SDS011;6164;42.178;24.622;2023-05-16T05:39:04;51.95;;;37.70;;
12202;SDS011;6164;42.178;24.622;2023-05-16T05:41:32;55.13;;;38.70;;
12202;SDS011;6164;42.178;24.622;2023-05-16T05:43:59;50.63;;;39.40;;
12202;SDS011;6164;42.178;24.622;2023-05-16T05:46:29;48.42;;;37.92;;
12202;SDS011;6164;42.178;24.622;2023-05-16T05:48:56;46.55;;;37.60;;
12202;SDS011;6164;42.178;24.622;2023-05-16T05:51:23;49.45;;;38.65;;
12202;SDS011;6164;42.178;24.622;2023-05-16T05:53:50;54.22;;;38.40;;
12202;SDS011;6164;42.178;24.622;2023-05-16T05:56:16;51.35;;;38.45;;
12202;SDS011;6164;42.178;24.622;2023-05-16T05:58:44;59.35;;;38.60;;
12202;SDS011;6164;42.178;24.622;2023-05-16T06:01:11;48.78;;;37.28;;
12202;SDS011;6164;42.178;24.622;2023-05-16T06:03:38;48.50;;;37.40;;
12202;SDS011;6164;42.178;24.622;2023-05-16T06:06:05;51.15;;;38.28;;
12202;SDS011;6164;42.178;24.622;2023-05-16T06:08:32;55.33;;;39.33;;
12202;SDS011;6164;42.178;24.622;2023-05-16T06:10:59;50.75;;;38.95;;
12202;SDS011;6164;42.178;24.622;2023-05-16T06:13:26;50.08;;;36.42;;
12202;SDS011;6164;42.178;24.622;2023-05-16T06:15:54;46.75;;;36.80;;
12202;SDS011;6164;42.178;24.622;2023-05-16T06:18:20;49.70;;;38.03;;
12202;SDS011;6164;42.178;24.622;2023-05-16T06:20:47;57.17;;;39.15;;
12202;SDS011;6164;42.178;24.622;2023-05-16T06:23:14;51.20;;;38.05;;
12202;SDS011;6164;42.178;24.622;2023-05-16T06:25:41;47.85;;;37.60;;
12202;SDS011;6164;42.178;24.622;2023-05-16T06:28:07;49.03;;;38.38;;
12202;SDS011;6164;42.178;24.622;2023-05-16T06:30:34;53.80;;;39.22;;
12202;SDS011;6164;42.178;24.622;2023-05-16T06:33:02;50.90;;;39.85;;
12202;SDS011;6164;42.178;24.622;2023-05-16T06:35:29;52.88;;;39.42;;
12202;SDS011;6164;42.178;24.622;2023-05-16T06:37:56;48.40;;;39.50;;
12202;SDS011;6164;42.178;24.622;2023-05-16T06:40:23;62.25;;;40.75;;
12202;SDS011;6164;42.178;24.622;2023-05-16T06:42:49;54.88;;;39.28;;
12202;SDS011;6164;42.178;24.622;2023-05-16T06:45:16;51.88;;;40.92;;
12202;SDS011;6164;42.178;24.622;2023-05-16T06:47:43;55.13;;;40.35;;
12202;SDS011;6164;42.178;24.622;2023-05-16T06:50:11;53.85;;;40.58;;
12202;SDS011;6164;42.178;24.622;2023-05-16T06:52:38;54.40;;;41.03;;
12202;SDS011;6164;42.178;24.622;2023-05-16T06:55:04;53.13;;;38.63;;
12202;SDS011;6164;42.178;24.622;2023-05-16T06:57:31;55.80;;;38.65;;
12202;SDS011;6164;42.178;24.622;2023-05-16T06:59:58;52.17;;;40.17;;
12202;SDS011;6164;42.178;24.622;2023-05-16T07:02:25;58.05;;;40.58;;
12202;SDS011;6164;42.178;24.622;2023-05-16T07:04:52;54.30;;;39.00;;
12202;SDS011;6164;42.178;24.622;2023-05-16T07:07:20;48.63;;;37.13;;
12202;SDS011;6164;42.178;24.622;2023-05-16T07:09:47;50.28;;;36.83;;
12202;SDS011;6164;42.178;24.622;2023-05-16T07:12:13;44.35;;;34.05;;
12202;SDS011;6164;42.178;24.622;2023-05-16T07:14:40;48.42;;;34.83;;
12202;SDS011;6164;42.178;24.622;2023-05-16T07:17:07;42.83;;;31.50;;
12202;SDS011;6164;42.178;24.622;2023-05-16T07:19:34;43.40;;;32.35;;
12202;SDS011;6164;42.178;24.622;2023-05-16T07:22:01;37.00;;;29.50;;
12202;SDS011;6164;42.178;24.622;2023-05-16T07:24:29;38.05;;;31.70;;
12202;SDS011;6164;42.178;24.622;2023-05-16T07:26:55;46.63;;;33.50;;
12202;SDS011;6164;42.178;24.622;2023-05-16T07:29:22;41.97;;;32.08;;
12202;SDS011;6164;42.178;24.622;2023-05-16T07:31:49;42.50;;;33.03;;
12202;SDS011;6164;42.178;24.622;2023-05-16T07:34:16;40.75;;;31.95;;
12202;SDS011;6164;42.178;24.622;2023-05-16T07:36:43;38.78;;;29.02;;
12202;SDS011;6164;42.178;24.622;2023-05-16T07:39:10;39.80;;;29.33;;
12202;SDS011;6164;42.178;24.622;2023-05-16T07:41:38;36.33;;;26.38;;
12202;SDS011;6164;42.178;24.622;2023-05-16T07:44:05;33.53;;;26.15;;
12202;SDS011;6164;42.178;24.622;2023-05-16T07:46:31;34.50;;;25.92;;
12202;SDS011;6164;42.178;24.622;2023-05-16T07:48:58;33.28;;;26.08;;
12202;SDS011;6164;42.178;24.622;2023-05-16T07:51:25;37.55;;;25.90;;
12202;SDS011;6164;42.178;24.622;2023-05-16T07:53:52;31.48;;;24.40;;
12202;SDS011;6164;42.178;24.622;2023-05-16T07:56:19;30.80;;;25.10;;
12202;SDS011;6164;42.178;24.622;2023-05-16T07:58:49;27.80;;;22.55;;
12202;SDS011;6164;42.178;24.622;2023-05-16T08:01:18;26.58;;;20.13;;
12202;SDS011;6164;42.178;24.622;2023-05-16T08:03:45;27.15;;;19.80;;
12202;SDS011;6164;42.178;24.622;2023-05-16T08:06:12;25.40;;;20.20;;
12202;SDS011;6164;42.178;24.622;2023-05-16T08:08:39;25.05;;;19.58;;
12202;SDS011;6164;42.178;24.622;2023-05-16T08:11:05;23.55;;;19.33;;
12202;SDS011;6164;42.178;24.622;2023-05-16T08:13:32;31.75;;;19.92;;
12202;SDS011;6164;42.178;24.622;2023-05-16T08:16:00;25.38;;;19.75;;
12202;SDS011;6164;42.178;24.622;2023-05-16T08:18:27;25.75;;;19.40;;
12202;SDS011;6164;42.178;24.622;2023-05-16T08:20:53;26.30;;;19.35;;
12202;SDS011;6164;42.178;24.622;2023-05-16T08:23:20;20.55;;;17.55;;
12202;SDS011;6164;42.178;24.622;2023-05-16T08:25:47;19.42;;;15.82;;
12202;SDS011;6164;42.178;24.622;2023-05-16T08:28:14;20.33;;;17.45;;
12202;SDS011;6164;42.178;24.622;2023-05-16T08:30:40;20.50;;;16.52;;
12202;SDS011;6164;42.178;24.622;2023-05-16T08:33:09;24.13;;;17.60;;
12202;SDS011;6164;42.178;24.622;2023-05-16T08:35:35;20.60;;;16.40;;
12202;SDS011;6164;42.178;24.622;2023-05-16T08:38:02;21.85;;;15.82;;
12202;SDS011;6164;42.178;24.622;2023-05-16T08:40:29;17.50;;;15.40;;
12202;SDS011;6164;42.178;24.622;2023-05-16T08:42:56;19.38;;;16.20;;
12202;SDS011;6164;42.178;24.622;2023-05-16T08:45:23;18.67;;;14.88;;
12202;SDS011;6164;42.178;24.622;2023-05-16T08:47:52;20.13;;;15.25;;
12202;SDS011;6164;42.178;24.622;2023-05-16T08:50:22;18.88;;;14.35;;
12202;SDS011;6164;42.178;24.622;2023-05-16T08:52:50;16.38;;;14.68;;
12202;SDS011;6164;42.178;24.622;2023-05-16T08:55:18;19.15;;;14.88;;
12202;SDS011;6164;42.178;24.622;2023-05-16T08:57:47;19.60;;;14.90;;
12202;SDS011;6164;42.178;24.622;2023-05-16T09:00:15;14.75;;;13.35;;
12202;SDS011;6164;42.178;24.622;2023-05-16T09:02:43;18.27;;;14.00;;
12202;SDS011;6164;42.178;24.622;2023-05-16T09:05:10;16.83;;;12.93;;
12202;SDS011;6164;42.178;24.622;2023-05-16T09:07:40;16.67;;;12.93;;
12202;SDS011;6164;42.178;24.622;2023-05-16T09:10:08;16.40;;;12.98;;
12202;SDS011;6164;42.178;24.622;2023-05-16T09:12:35;21.10;;;13.32;;
12202;SDS011;6164;42.178;24.622;2023-05-16T09:15:03;15.77;;;12.48;;
12202;SDS011;6164;42.178;24.622;2023-05-16T09:17:33;14.73;;;12.45;;
12202;SDS011;6164;42.178;24.622;2023-05-16T09:20:07;16.55;;;13.30;;
12202;SDS011;6164;42.178;24.622;2023-05-16T09:22:35;18.08;;;14.13;;
12202;SDS011;6164;42.178;24.622;2023-05-16T09:25:04;15.48;;;13.35;;
12202;SDS011;6164;42.178;24.622;2023-05-16T09:27:31;14.43;;;12.82;;
12202;SDS011;6164;42.178;24.622;2023-05-16T09:29:58;14.48;;;11.77;;
12202;SDS011;6164;42.178;24.622;2023-05-16T09:32:25;13.43;;;12.05;;
12202;SDS011;6164;42.178;24.622;2023-05-16T09:34:52;14.52;;;13.13;;
12202;SDS011;6164;42.178;24.622;2023-05-16T09:37:22;14.43;;;12.65;;
12202;SDS011;6164;42.178;24.622;2023-05-16T09:39:49;14.45;;;12.93;;
12202;SDS011;6164;42.178;24.622;2023-05-16T09:42:20;16.35;;;12.88;;
12202;SDS011;6164;42.178;24.622;2023-05-16T09:44:48;16.02;;;12.45;;
12202;SDS011;6164;42.178;24.622;2023-05-16T09:47:15;14.20;;;12.15;;
12202;SDS011;6164;42.178;24.622;2023-05-16T09:49:43;14.77;;;12.80;;
12202;SDS011;6164;42.178;24.622;2023-05-16T09:52:12;13.88;;;12.18;;
12202;SDS011;6164;42.178;24.622;2023-05-16T09:54:39;16.13;;;13.38;;
12202;SDS011;6164;42.178;24.622;2023-05-16T09:57:06;16.67;;;13.35;;
12202;SDS011;6164;42.178;24.622;2023-05-16T09:59:35;15.48;;;13.70;;
12202;SDS011;6164;42.178;24.622;2023-05-16T10:02:03;16.65;;;13.50;;
12202;SDS011;6164;42.178;24.622;2023-05-16T10:04:32;13.80;;;12.43;;
12202;SDS011;6164;42.178;24.622;2023-05-16T10:07:00;17.48;;;13.52;;
12202;SDS011;6164;42.178;24.622;2023-05-16T10:09:30;15.48;;;12.77;;
12202;SDS011;6164;42.178;24.622;2023-05-16T10:11:58;13.77;;;12.35;;
12202;SDS011;6164;42.178;24.622;2023-05-16T10:14:28;16.17;;;12.95;;
12202;SDS011;6164;42.178;24.622;2023-05-16T10:17:00;15.07;;;13.48;;
12202;SDS011;6164;42.178;24.622;2023-05-16T10:19:29;18.88;;;13.40;;
12202;SDS011;6164;42.178;24.622;2023-05-16T10:21:58;18.42;;;12.90;;
12202;SDS011;6164;42.178;24.622;2023-05-16T10:24:34;15.57;;;12.70;;
12202;SDS011;6164;42.178;24.622;2023-05-16T10:27:07;14.20;;;12.63;;
12202;SDS011;6164;42.178;24.622;2023-05-16T10:29:35;16.13;;;13.02;;
12202;SDS011;6164;42.178;24.622;2023-05-16T10:32:04;13.90;;;12.27;;
12202;SDS011;6164;42.178;24.622;2023-05-16T10:34:33;14.93;;;11.63;;
12202;SDS011;6164;42.178;24.622;2023-05-16T10:37:00;19.63;;;12.45;;
12202;SDS011;6164;42.178;24.622;2023-05-16T10:39:27;14.00;;;12.32;;
12202;SDS011;6164;42.178;24.622;2023-05-16T10:41:55;15.45;;;12.05;;
12202;SDS011;6164;42.178;24.622;2023-05-16T10:44:22;14.15;;;12.73;;
12202;SDS011;6164;42.178;24.622;2023-05-16T10:46:48;16.52;;;12.90;;
12202;SDS011;6164;42.178;24.622;2023-05-16T10:49:20;14.43;;;12.85;;
12202;SDS011;6164;42.178;24.622;2023-05-16T10:52:04;14.48;;;12.32;;
12202;SDS011;6164;42.178;24.622;2023-05-16T10:54:33;14.10;;;12.50;;
12202;SDS011;6164;42.178;24.622;2023-05-16T10:57:05;13.95;;;12.50;;
12202;SDS011;6164;42.178;24.622;2023-05-16T10:59:40;15.02;;;13.35;;
12202;SDS011;6164;42.178;24.622;2023-05-16T11:02:22;15.10;;;11.85;;
12202;SDS011;6164;42.178;24.622;2023-05-16T11:04:51;16.88;;;14.10;;
12202;SDS011;6164;42.178;24.622;2023-05-16T11:07:20;13.82;;;12.52;;
12202;SDS011;6164;42.178;24.622;2023-05-16T11:09:52;16.13;;;13.32;;
12202;SDS011;6164;42.178;24.622;2023-05-16T11:12:35;22.23;;;13.13;;
12202;SDS011;6164;42.178;24.622;2023-05-16T11:15:15;14.57;;;12.25;;
12202;SDS011;6164;42.178;24.622;2023-05-16T11:17:44;15.77;;;12.88;;
12202;SDS011;6164;42.178;24.622;2023-05-16T11:20:25;15.00;;;13.50;;
12202;SDS011;6164;42.178;24.622;2023-05-16T11:23:16;17.13;;;13.63;;
12202;SDS011;6164;42.178;24.622;2023-05-16T11:25:48;15.27;;;13.63;;
12202;SDS011;6164;42.178;24.622;2023-05-16T11:28:18;21.48;;;13.77;;
12202;SDS011;6164;42.178;24.622;2023-05-16T11:30:45;14.68;;;13.15;;
12202;SDS011;6164;42.178;24.622;2023-05-16T11:33:14;19.08;;;14.27;;
12202;SDS011;6164;42.178;24.622;2023-05-16T11:35:42;19.27;;;14.65;;
12202;SDS011;6164;42.178;24.622;2023-05-16T11:38:12;20.55;;;14.60;;
12202;SDS011;6164;42.178;24.622;2023-05-16T11:40:41;15.55;;;13.90;;
12202;SDS011;6164;42.178;24.622;2023-05-16T11:43:09;16.98;;;14.50;;
12202;SDS011;6164;42.178;24.622;2023-05-16T11:45:37;18.33;;;14.25;;
12202;SDS011;6164;42.178;24.622;2023-05-16T11:48:04;17.55;;;15.75;;
12202;SDS011;6164;42.178;24.622;2023-05-16T11:50:32;16.00;;;14.40;;
12202;SDS011;6164;42.178;24.622;2023-05-16T11:53:01;18.30;;;13.68;;
12202;SDS011;6164;42.178;24.622;2023-05-16T11:55:31;18.17;;;14.38;;
12202;SDS011;6164;42.178;24.622;2023-05-16T11:57:58;17.38;;;15.63;;
12202;SDS011;6164;42.178;24.622;2023-05-16T12:00:26;24.33;;;14.57;;
12202;SDS011;6164;42.178;24.622;2023-05-16T12:02:53;16.88;;;15.18;;
12202;SDS011;6164;42.178;24.622;2023-05-16T12:05:26;17.45;;;15.38;;
12202;SDS011;6164;42.178;24.622;2023-05-16T12:07:55;16.58;;;14.98;;
12202;SDS011;6164;42.178;24.622;2023-05-16T12:10:23;18.75;;;15.35;;
12202;SDS011;6164;42.178;24.622;2023-05-16T12:12:51;20.05;;;16.65;;
12202;SDS011;6164;42.178;24.622;2023-05-16T12:15:18;17.38;;;15.55;;
12202;SDS011;6164;42.178;24.622;2023-05-16T12:17:45;18.02;;;16.00;;
12202;SDS011;6164;42.178;24.622;2023-05-16T12:20:12;17.35;;;15.48;;
12202;SDS011;6164;42.178;24.622;2023-05-16T12:22:40;23.65;;;17.13;;
12202;SDS011;6164;42.178;24.622;2023-05-16T12:25:20;19.85;;;17.75;;
12202;SDS011;6164;42.178;24.622;2023-05-16T12:27:52;20.08;;;17.17;;
12202;SDS011;6164;42.178;24.622;2023-05-16T12:30:20;20.85;;;17.08;;
12202;SDS011;6164;42.178;24.622;2023-05-16T12:32:52;19.92;;;17.48;;
12202;SDS011;6164;42.178;24.622;2023-05-16T12:35:21;20.85;;;17.17;;
12202;SDS011;6164;42.178;24.622;2023-05-16T12:37:48;19.38;;;17.25;;
12202;SDS011;6164;42.178;24.622;2023-05-16T12:40:16;23.00;;;17.50;;
12202;SDS011;6164;42.178;24.622;2023-05-16T12:42:46;19.67;;;17.67;;
12202;SDS011;6164;42.178;24.622;2023-05-16T12:45:15;20.15;;;18.05;;
12202;SDS011;6164;42.178;24.622;2023-05-16T12:47:43;20.27;;;18.00;;
12202;SDS011;6164;42.178;24.622;2023-05-16T12:50:10;19.35;;;17.40;;
12202;SDS011;6164;42.178;24.622;2023-05-16T12:52:45;20.73;;;16.92;;
12202;SDS011;6164;42.178;24.622;2023-05-16T12:55:15;20.38;;;18.27;;
12202;SDS011;6164;42.178;24.622;2023-05-16T12:57:42;20.73;;;18.73;;
12202;SDS011;6164;42.178;24.622;2023-05-16T13:00:13;23.60;;;17.55;;
12202;SDS011;6164;42.178;24.622;2023-05-16T13:02:42;21.05;;;18.75;;
12202;SDS011;6164;42.178;24.622;2023-05-16T13:05:13;21.42;;;18.13;;
12202;SDS011;6164;42.178;24.622;2023-05-16T13:07:40;22.13;;;19.77;;
12202;SDS011;6164;42.178;24.622;2023-05-16T13:10:07;24.75;;;19.33;;
12202;SDS011;6164;42.178;24.622;2023-05-16T13:12:35;20.63;;;18.58;;
12202;SDS011;6164;42.178;24.622;2023-05-16T13:15:03;25.42;;;19.13;;
12202;SDS011;6164;42.178;24.622;2023-05-16T13:17:32;22.80;;;19.23;;
12202;SDS011;6164;42.178;24.622;2023-05-16T13:19:59;20.58;;;18.48;;
12202;SDS011;6164;42.178;24.622;2023-05-16T13:22:26;20.65;;;18.45;;
12202;SDS011;6164;42.178;24.622;2023-05-16T13:24:53;22.10;;;19.83;;
12202;SDS011;6164;42.178;24.622;2023-05-16T13:27:20;19.48;;;17.48;;
12202;SDS011;6164;42.178;24.622;2023-05-16T13:29:46;19.77;;;17.77;;
12202;SDS011;6164;42.178;24.622;2023-05-16T13:32:13;20.58;;;18.35;;
12202;SDS011;6164;42.178;24.622;2023-05-16T13:34:42;22.08;;;18.13;;
12202;SDS011;6164;42.178;24.622;2023-05-16T13:37:09;20.17;;;18.05;;
12202;SDS011;6164;42.178;24.622;2023-05-16T13:39:35;20.73;;;18.50;;
12202;SDS011;6164;42.178;24.622;2023-05-16T13:42:02;18.10;;;16.40;;
12202;SDS011;6164;42.178;24.622;2023-05-16T13:44:29;20.90;;;17.67;;
12202;SDS011;6164;42.178;24.622;2023-05-16T13:46:56;21.08;;;16.98;;
12202;SDS011;6164;42.178;24.622;2023-05-16T13:49:23;18.88;;;17.00;;
12202;SDS011;6164;42.178;24.622;2023-05-16T13:51:51;19.42;;;17.42;;
12202;SDS011;6164;42.178;24.622;2023-05-16T13:54:17;19.52;;;15.15;;
12202;SDS011;6164;42.178;24.622;2023-05-16T13:56:46;19.88;;;17.42;;
12202;SDS011;6164;42.178;24.622;2023-05-16T13:59:13;20.65;;;18.55;;
12202;SDS011;6164;42.178;24.622;2023-05-16T14:01:40;19.90;;;17.80;;
12202;SDS011;6164;42.178;24.622;2023-05-16T14:04:06;20.25;;;18.25;;
12202;SDS011;6164;42.178;24.622;2023-05-16T14:06:33;21.08;;;18.90;;
12202;SDS011;6164;42.178;24.622;2023-05-16T14:09:01;24.58;;;19.75;;
12202;SDS011;6164;42.178;24.622;2023-05-16T14:11:28;23.77;;;21.38;;
12202;SDS011;6164;42.178;24.622;2023-05-16T14:13:55;22.10;;;19.92;;
12202;SDS011;6164;42.178;24.622;2023-05-16T14:16:22;24.30;;;21.55;;
12202;SDS011;6164;42.178;24.622;2023-05-16T14:18:48;23.35;;;20.67;;
12202;SDS011;6164;42.178;24.622;2023-05-16T14:21:15;24.73;;;21.08;;
12202;SDS011;6164;42.178;24.622;2023-05-16T14:23:42;25.63;;;21.15;;
12202;SDS011;6164;42.178;24.622;2023-05-16T14:26:10;23.65;;;20.73;;
12202;SDS011;6164;42.178;24.622;2023-05-16T14:28:37;24.90;;;22.30;;